createdAt,value
2018-06-20T00:00:15.683Z,56.40
2018-06-20T00:02:44.667Z,55.95
2018-06-20T00:05:13.593Z,55.87
2018-06-20T00:07:42.553Z,56.30
2018-06-20T00:10:11.470Z,55.89
2018-06-20T00:12:40.475Z,55.80
2018-06-20T00:15:09.434Z,55.65
2018-06-20T00:17:38.386Z,56.25
2018-06-20T00:20:07.310Z,56.17
2018-06-20T00:22:36.265Z,56.98
2018-06-20T00:25:05.193Z,57.24
2018-06-20T00:27:34.186Z,57.13
2018-06-20T00:30:03.154Z,56.79
2018-06-20T00:32:32.134Z,56.75
2018-06-20T00:35:01.103Z,57.51
2018-06-20T00:37:30.082Z,57.50
2018-06-20T00:39:59.003Z,57.66
2018-06-20T00:42:27.982Z,57.69
2018-06-20T00:44:56.895Z,57.74
2018-06-20T00:47:25.863Z,57.62
2018-06-20T00:49:54.803Z,58.47
2018-06-20T00:52:23.769Z,59.69
2018-06-20T00:54:52.693Z,60.39
2018-06-20T00:57:21.674Z,59.95
2018-06-20T00:59:50.653Z,61.18
2018-06-20T01:02:19.617Z,60.89
2018-06-20T01:04:48.542Z,63.73
2018-06-20T01:07:17.510Z,64.97
2018-06-20T01:09:46.479Z,66.98
2018-06-20T01:12:15.445Z,65.48
2018-06-20T01:14:44.361Z,64.56
2018-06-20T01:17:14.242Z,63.30
2018-06-20T01:19:43.214Z,63.20
2018-06-20T01:22:12.136Z,62.51
2018-06-20T01:24:41.093Z,62.38
2018-06-20T01:27:10.027Z,62.09
2018-06-20T01:29:38.993Z,62.04
2018-06-20T01:32:07.922Z,62.24
2018-06-20T01:34:36.887Z,62.45
2018-06-20T01:37:05.853Z,63.04
2018-06-20T01:39:34.821Z,61.99
2018-06-20T01:42:03.754Z,61.89
2018-06-20T01:44:32.726Z,63.22
2018-06-20T01:47:01.658Z,63.58
2018-06-20T01:49:30.635Z,63.51
2018-06-20T01:51:59.574Z,63.73
2018-06-20T01:54:28.563Z,63.00
2018-06-20T01:56:57.504Z,62.54
2018-06-20T01:59:26.482Z,64.43
2018-06-20T02:01:55.465Z,64.03
2018-06-20T02:04:24.453Z,63.42
2018-06-20T02:06:53.390Z,64.06
2018-06-20T02:09:22.364Z,63.99
2018-06-20T02:11:51.312Z,65.07
2018-06-20T02:14:20.299Z,64.81
2018-06-20T02:16:49.221Z,63.84
2018-06-20T02:19:18.213Z,63.16
2018-06-20T02:21:52.153Z,63.53
2018-06-20T02:24:21.127Z,62.88
2018-06-20T02:26:50.070Z,63.00
2018-06-20T02:29:19.042Z,62.12
2018-06-20T02:31:48.102Z,62.13
2018-06-20T02:34:17.047Z,62.25
2018-06-20T02:36:46.175Z,61.78
2018-06-20T02:39:15.075Z,61.68
2018-06-20T02:41:44.174Z,61.43
2018-06-20T02:44:13.154Z,62.27
2018-06-20T02:46:42.191Z,63.03
2018-06-20T02:49:11.176Z,65.05
2018-06-20T02:51:40.173Z,64.07
2018-06-20T02:54:09.155Z,64.71
2018-06-20T02:56:38.142Z,65.25
2018-06-20T02:59:07.230Z,65.78
2018-06-20T03:01:36.247Z,63.85
2018-06-20T03:04:05.211Z,63.07
2018-06-20T03:06:34.294Z,62.16
2018-06-20T03:09:07.316Z,62.39
2018-06-20T03:11:36.327Z,63.53
2018-06-20T03:14:05.332Z,66.06
2018-06-20T03:16:34.323Z,68.18
2018-06-20T03:19:03.343Z,68.78
2018-06-20T03:21:32.355Z,69.50
2018-06-20T03:24:01.311Z,69.66
2018-06-20T03:26:30.306Z,69.45
2018-06-20T03:28:59.313Z,67.91
2018-06-20T03:31:28.696Z,66.63
2018-06-20T03:33:57.850Z,65.44
2018-06-20T03:36:27.203Z,64.47
2018-06-20T03:38:56.157Z,64.82
2018-06-20T03:41:25.183Z,64.43
2018-06-20T03:43:54.155Z,64.80
2018-06-20T03:46:23.165Z,63.97
2018-06-20T03:48:52.122Z,64.10
2018-06-20T03:51:21.149Z,64.70
2018-06-20T03:53:50.095Z,65.06
2018-06-20T03:56:19.046Z,64.67
2018-06-20T03:58:48.122Z,64.96
2018-06-20T04:01:17.087Z,64.69
2018-06-20T04:03:46.123Z,64.45
2018-06-20T04:06:15.087Z,64.44
2018-06-20T04:08:44.098Z,65.84
2018-06-20T04:11:13.084Z,66.78
2018-06-20T04:13:42.097Z,68.83
2018-06-20T04:16:11.249Z,67.67
2018-06-20T04:18:43.163Z,66.56
2018-06-20T04:21:16.314Z,68.81
2018-06-20T04:23:45.362Z,69.20
2018-06-20T04:26:14.611Z,69.06
2018-06-20T04:28:43.604Z,68.88
2018-06-20T04:31:12.596Z,70.70
2018-06-20T04:33:41.613Z,69.52
2018-06-20T04:36:10.602Z,68.83
2018-06-20T04:38:39.669Z,69.23
2018-06-20T04:41:08.714Z,68.33
2018-06-20T04:43:37.743Z,67.64
2018-06-20T04:46:06.751Z,67.42
2018-06-20T04:48:35.761Z,67.49
2018-06-20T04:51:04.714Z,67.25
2018-06-20T04:53:33.783Z,64.98
2018-06-20T04:56:02.750Z,64.69
2018-06-20T04:58:31.762Z,63.65
2018-06-20T05:01:00.730Z,62.89
2018-06-20T05:03:29.782Z,61.89
2018-06-20T05:05:58.730Z,60.90
2018-06-20T05:08:27.734Z,60.29
2018-06-20T05:10:56.724Z,59.31
2018-06-20T05:13:25.799Z,59.55
2018-06-20T05:15:54.767Z,58.88
2018-06-20T05:18:23.743Z,58.59
2018-06-20T05:20:52.759Z,57.58
2018-06-20T05:23:21.727Z,58.96
2018-06-20T05:25:50.756Z,59.42
2018-06-20T05:28:19.721Z,60.68
2018-06-20T05:30:50.937Z,63.22
2018-06-20T05:33:20.390Z,64.18
2018-06-20T05:35:49.623Z,62.03
2018-06-20T05:38:18.695Z,59.35
2018-06-20T05:40:48.438Z,57.21
2018-06-20T05:43:17.377Z,55.78
2018-06-20T05:45:46.374Z,52.80
2018-06-20T05:48:15.340Z,50.74
2018-06-20T05:50:44.330Z,52.45
2018-06-20T05:53:13.314Z,50.09
2018-06-20T05:55:42.310Z,44.96
2018-06-20T05:58:11.233Z,40.49
2018-06-20T06:00:40.214Z,45.32
2018-06-20T06:03:09.163Z,41.69
2018-06-20T06:05:38.182Z,36.16
2018-06-20T06:08:10.218Z,34.49
2018-06-20T06:10:39.240Z,34.56
2018-06-20T06:13:08.212Z,33.61
2018-06-20T06:15:37.234Z,30.95
2018-06-20T06:18:06.281Z,37.35
2018-06-20T06:20:35.290Z,37.36
2018-06-20T06:23:04.221Z,41.71
2018-06-20T06:25:33.179Z,45.86
2018-06-20T06:28:02.125Z,47.30
2018-06-20T06:30:31.167Z,42.80
2018-06-20T06:33:00.110Z,44.18
2018-06-20T06:35:29.119Z,48.29
2018-06-20T06:37:58.094Z,46.02
2018-06-20T06:40:27.130Z,42.23
2018-06-20T06:42:56.086Z,41.95
2018-06-20T06:45:25.124Z,38.84
2018-06-20T06:47:54.125Z,46.53
2018-06-20T06:50:23.157Z,40.48
2018-06-20T06:52:52.133Z,42.52
2018-06-20T06:55:21.235Z,37.07
2018-06-20T06:57:50.255Z,42.05
2018-06-20T07:00:19.404Z,41.99
2018-06-20T07:02:48.387Z,46.05
2018-06-20T07:05:17.406Z,46.68
2018-06-20T07:07:46.378Z,47.37
2018-06-20T07:10:15.369Z,44.66
2018-06-20T07:12:44.366Z,41.81
2018-06-20T07:15:13.314Z,44.38
2018-06-20T07:17:42.345Z,45.21
2018-06-20T07:20:11.402Z,42.55
2018-06-20T07:22:40.425Z,40.31
2018-06-20T07:25:09.413Z,42.85
2018-06-20T07:27:38.422Z,42.30
2018-06-20T07:30:07.467Z,41.73
2018-06-20T07:32:36.449Z,43.61
2018-06-20T07:35:05.430Z,44.13
2018-06-20T07:37:34.482Z,44.42
2018-06-20T07:40:03.452Z,41.08
2018-06-20T07:42:32.466Z,42.40
2018-06-20T07:45:02.412Z,42.80
2018-06-20T07:47:31.402Z,42.69
2018-06-20T07:50:00.464Z,43.80
2018-06-20T07:52:29.448Z,41.07
2018-06-20T07:54:58.437Z,39.41
2018-06-20T07:57:27.490Z,41.69
2018-06-20T08:00:01.443Z,40.40
2018-06-20T08:02:46.523Z,40.01
2018-06-20T08:05:20.514Z,42.86
2018-06-20T08:07:54.561Z,40.37
2018-06-20T08:10:28.766Z,37.29
2018-06-20T08:14:05.876Z,36.26
2018-06-20T08:16:40.055Z,42.22
2018-06-20T08:19:14.245Z,38.66
2018-06-20T08:21:43.200Z,40.99
2018-06-20T08:24:12.358Z,42.06
2018-06-20T08:26:41.406Z,43.47
2018-06-20T08:29:10.437Z,44.03
2018-06-20T08:31:39.393Z,40.50
2018-06-20T08:34:08.426Z,40.64
2018-06-20T08:36:37.432Z,37.57
2018-06-20T08:39:08.054Z,39.52
2018-06-20T08:41:37.009Z,38.50
2018-06-20T08:44:05.990Z,36.61
2018-06-20T08:46:34.967Z,34.37
2018-06-20T08:49:04.012Z,34.49
2018-06-20T08:51:33.008Z,32.36
2018-06-20T08:54:01.978Z,36.50
2018-06-20T08:56:30.954Z,32.58
2018-06-20T08:58:59.943Z,32.13
2018-06-20T09:01:28.935Z,35.51
2018-06-20T09:04:02.996Z,38.13
2018-06-20T09:06:37.131Z,39.41
2018-06-20T09:09:12.928Z,37.31
2018-06-20T09:11:47.090Z,33.53
2018-06-20T09:14:16.151Z,36.48
2018-06-20T09:16:50.197Z,36.89
2018-06-20T09:19:24.455Z,37.01
2018-06-20T09:21:53.443Z,33.93
2018-06-20T09:24:22.584Z,36.55
2018-06-20T09:26:51.564Z,35.86
2018-06-20T09:29:20.525Z,32.88
2018-06-20T09:31:49.552Z,35.65
2018-06-20T09:34:18.604Z,36.59
2018-06-20T09:36:47.748Z,34.73
2018-06-20T09:39:16.718Z,34.83
2018-06-20T09:41:45.777Z,37.32
2018-06-20T09:44:14.787Z,38.53
2018-06-20T09:46:43.790Z,39.51
2018-06-20T09:49:12.738Z,39.02
2018-06-20T09:51:41.773Z,38.67
2018-06-20T09:54:10.815Z,36.04
2018-06-20T09:56:40.022Z,33.08
2018-06-20T09:59:14.294Z,30.35
2018-06-20T10:01:48.299Z,30.79
2018-06-20T10:04:22.415Z,30.00
2018-06-20T10:06:56.624Z,28.93
2018-06-20T10:09:30.654Z,27.98
2018-06-20T10:12:04.834Z,26.05
2018-06-20T10:14:33.798Z,33.53
2018-06-20T10:17:02.826Z,34.00
2018-06-20T10:19:31.865Z,32.43
2018-06-20T10:22:00.884Z,33.58
2018-06-20T10:24:29.874Z,31.27
2018-06-20T10:26:58.907Z,30.55
2018-06-20T10:29:27.904Z,31.46
2018-06-20T10:31:56.912Z,30.44
2018-06-20T10:34:25.896Z,30.26
2018-06-20T10:36:54.985Z,30.43
2018-06-20T10:39:23.965Z,30.55
2018-06-20T10:41:53.506Z,31.04
2018-06-20T10:44:22.497Z,34.48
2018-06-20T10:47:57.488Z,33.50
2018-06-20T10:50:26.542Z,34.32
2018-06-20T10:52:55.765Z,34.83
2018-06-20T10:55:25.485Z,35.51
2018-06-20T10:57:59.535Z,36.42
2018-06-20T11:00:34.016Z,34.48
2018-06-20T11:03:08.302Z,33.87
2018-06-20T11:05:42.434Z,34.01
2018-06-20T11:08:17.175Z,36.15
2018-06-20T11:10:51.295Z,36.58
2018-06-20T11:13:20.316Z,32.77
2018-06-20T11:15:50.019Z,32.87
2018-06-20T11:18:19.022Z,35.97
2018-06-20T11:20:53.250Z,35.86
2018-06-20T11:23:22.288Z,37.29
2018-06-20T11:25:51.248Z,36.65
2018-06-20T11:28:20.255Z,33.60
2018-06-20T11:30:49.275Z,31.53
2018-06-20T11:33:18.429Z,30.18
2018-06-20T11:35:47.407Z,31.11
2018-06-20T11:38:16.461Z,32.47
2018-06-20T11:40:45.424Z,30.73
2018-06-20T11:43:14.481Z,30.84
2018-06-20T11:45:48.560Z,30.29
2018-06-20T11:48:17.798Z,27.80
2018-06-20T11:50:46.921Z,28.54
2018-06-20T11:53:15.865Z,31.24
2018-06-20T11:55:46.020Z,31.11
2018-06-20T11:58:20.112Z,33.05
2018-06-20T12:00:54.204Z,30.31
2018-06-20T12:03:28.235Z,29.27
2018-06-20T12:06:02.389Z,30.58
2018-06-20T12:08:36.655Z,30.72
2018-06-20T12:11:10.759Z,33.25
2018-06-20T12:13:44.914Z,33.30
2018-06-20T12:16:18.941Z,33.03
2018-06-20T12:18:53.146Z,27.99
2018-06-20T12:21:27.244Z,27.61
2018-06-20T12:24:01.256Z,32.08
2018-06-20T12:26:35.255Z,31.78
2018-06-20T12:29:09.371Z,31.88
2018-06-20T12:31:43.586Z,33.98
2018-06-20T12:34:17.729Z,28.19
2018-06-20T12:36:51.748Z,30.21
2018-06-20T12:39:19.740Z,33.78
2018-06-20T12:41:53.803Z,34.51
2018-06-20T12:44:30.690Z,35.77
2018-06-20T12:47:01.521Z,32.36
2018-06-20T12:49:35.227Z,30.95
2018-06-20T12:52:04.235Z,30.65
2018-06-20T12:54:33.707Z,31.97
2018-06-20T12:57:02.679Z,26.87
2018-06-20T12:59:31.662Z,30.60
2018-06-20T13:02:00.637Z,28.75
2018-06-20T13:04:29.656Z,27.36
2018-06-20T13:06:58.636Z,25.84
2018-06-20T13:09:28.221Z,30.40
2018-06-20T13:11:58.049Z,30.60
2018-06-20T13:14:27.205Z,30.30
2018-06-20T13:16:56.478Z,30.91
2018-06-20T13:19:26.012Z,29.29
2018-06-20T13:21:56.293Z,29.36
2018-06-20T13:24:25.588Z,29.63
2018-06-20T13:26:55.557Z,27.00
2018-06-20T13:29:25.312Z,27.46
2018-06-20T13:31:59.679Z,28.31
2018-06-20T13:34:33.921Z,29.15
2018-06-20T13:37:08.282Z,30.49
2018-06-20T13:39:42.684Z,30.59
2018-06-20T13:43:16.881Z,28.96
2018-06-20T13:45:50.911Z,25.29
2018-06-20T13:48:25.153Z,30.26
2018-06-20T13:50:54.185Z,29.91
2018-06-20T13:53:23.234Z,29.54
2018-06-20T13:55:52.274Z,31.17
2018-06-20T13:58:21.270Z,27.74
2018-06-20T14:00:50.529Z,26.33
2018-06-20T14:03:20.895Z,25.31
2018-06-20T14:05:51.022Z,26.08
2018-06-20T14:08:20.920Z,27.94
2018-06-20T14:10:50.205Z,27.64
2018-06-20T14:13:19.958Z,29.18
2018-06-20T14:15:50.087Z,30.99
2018-06-20T14:18:20.378Z,29.06
2018-06-20T14:21:52.698Z,31.32
2018-06-20T14:24:21.775Z,28.57
2018-06-20T14:26:51.111Z,28.43
2018-06-20T14:29:20.090Z,26.28
2018-06-20T14:31:54.356Z,29.21
2018-06-20T14:34:28.414Z,29.63
2018-06-20T14:37:02.887Z,26.36
2018-06-20T14:39:36.963Z,25.83
2018-06-20T14:42:11.206Z,25.83
2018-06-20T14:44:40.155Z,24.40
2018-06-20T14:47:09.147Z,28.50
2018-06-20T14:49:38.201Z,30.49
2018-06-20T14:52:07.210Z,29.71
2018-06-20T14:54:36.182Z,29.33
2018-06-20T14:57:05.214Z,30.54
2018-06-20T14:59:34.187Z,31.91
2018-06-20T15:02:03.234Z,29.03
2018-06-20T15:04:32.209Z,27.02
2018-06-20T15:07:01.422Z,26.89
2018-06-20T15:09:30.426Z,28.14
2018-06-20T15:11:59.449Z,28.15
2018-06-20T15:14:28.448Z,29.95
2018-06-20T15:17:02.526Z,31.04
2018-06-20T15:19:31.754Z,31.62
2018-06-20T15:22:01.035Z,32.68
2018-06-20T15:24:30.986Z,26.88
2018-06-20T15:27:05.207Z,28.45
2018-06-20T15:29:39.210Z,31.68
2018-06-20T15:32:13.304Z,33.80
2018-06-20T15:34:47.522Z,30.23
2018-06-20T15:37:21.890Z,30.12
2018-06-20T15:39:51.084Z,32.86
2018-06-20T15:42:20.104Z,31.69
2018-06-20T15:44:49.386Z,33.45
2018-06-20T15:47:18.731Z,32.97
2018-06-20T15:49:48.531Z,33.22
2018-06-20T15:52:17.826Z,32.40
2018-06-20T15:54:47.164Z,31.26
2018-06-20T15:57:16.476Z,30.83
2018-06-20T15:59:46.354Z,29.12
2018-06-20T16:02:15.616Z,31.57
2018-06-20T16:04:44.625Z,31.37
2018-06-20T16:07:13.566Z,31.81
2018-06-20T16:09:47.622Z,31.78
2018-06-20T16:12:16.597Z,32.77
2018-06-20T16:14:45.619Z,32.75
2018-06-20T16:17:14.701Z,32.70
2018-06-20T16:19:48.778Z,30.09
2018-06-20T16:22:22.949Z,29.62
2018-06-20T16:24:57.013Z,27.25
2018-06-20T16:27:31.015Z,25.23
2018-06-20T16:30:05.189Z,27.93
2018-06-20T16:32:34.132Z,27.63
2018-06-20T16:35:03.544Z,31.78
2018-06-20T16:37:32.549Z,31.74
2018-06-20T16:40:01.570Z,29.91
2018-06-20T16:42:30.558Z,31.25
2018-06-20T16:44:59.592Z,27.84
2018-06-20T16:47:28.593Z,27.65
2018-06-20T16:49:57.615Z,25.38
2018-06-20T16:52:26.691Z,26.23
2018-06-20T16:55:01.879Z,26.22
2018-06-20T16:57:30.937Z,30.98
2018-06-20T17:00:00.112Z,33.99
2018-06-20T17:02:35.734Z,28.63
2018-06-20T17:05:04.770Z,27.01
2018-06-20T17:07:33.752Z,25.71
2018-06-20T17:10:02.786Z,26.21
2018-06-20T17:12:37.070Z,25.84
2018-06-20T17:15:11.246Z,25.27
2018-06-20T17:17:45.585Z,25.02
2018-06-20T17:20:19.623Z,25.62
2018-06-20T17:22:53.814Z,25.65
2018-06-20T17:25:32.306Z,26.22
2018-06-20T17:28:01.290Z,25.51
2018-06-20T17:30:30.378Z,26.04
2018-06-20T17:32:59.345Z,25.67
2018-06-20T17:35:28.361Z,25.66
2018-06-20T17:37:57.350Z,25.96
2018-06-20T17:40:26.367Z,25.73
2018-06-20T17:42:55.401Z,26.06
2018-06-20T17:45:24.429Z,25.54
2018-06-20T17:47:53.490Z,25.23
2018-06-20T17:50:22.454Z,25.89
2018-06-20T17:52:51.455Z,25.75
2018-06-20T17:55:20.423Z,26.38
2018-06-20T17:57:55.748Z,26.40
2018-06-20T18:00:24.721Z,26.26
2018-06-20T18:02:53.769Z,26.31
2018-06-20T18:05:27.868Z,26.29
2018-06-20T18:08:01.962Z,26.43
2018-06-20T18:10:36.166Z,27.07
2018-06-20T18:13:05.437Z,27.68
2018-06-20T18:15:39.616Z,27.74
2018-06-20T18:18:08.622Z,27.15
2018-06-20T18:20:37.610Z,27.40
2018-06-20T18:23:06.623Z,28.29
2018-06-20T18:25:35.618Z,28.37
2018-06-20T18:28:04.656Z,28.61
2018-06-20T18:30:33.649Z,29.31
2018-06-20T18:33:02.658Z,29.47
2018-06-20T18:35:31.620Z,29.57
2018-06-20T18:38:00.647Z,29.43
2018-06-20T18:40:29.624Z,30.02
2018-06-20T18:42:58.628Z,30.07
2018-06-20T18:45:27.666Z,30.09
2018-06-20T18:48:01.659Z,30.10
2018-06-20T18:50:30.633Z,29.72
2018-06-20T18:52:59.660Z,29.36
2018-06-20T18:55:28.651Z,29.46
2018-06-20T18:58:02.716Z,30.28
2018-06-20T19:00:36.889Z,29.70
2018-06-20T19:03:11.092Z,29.73
2018-06-20T19:05:45.078Z,30.52
2018-06-20T19:08:19.134Z,31.39
2018-06-20T19:10:48.121Z,31.26
2018-06-20T19:13:17.187Z,31.26
2018-06-20T19:15:46.155Z,31.41
2018-06-20T19:18:15.150Z,31.51
2018-06-20T19:20:44.153Z,31.19
2018-06-20T19:23:13.162Z,31.46
2018-06-20T19:25:42.223Z,30.70
2018-06-20T19:28:11.281Z,31.15
2018-06-20T19:30:40.241Z,31.19
2018-06-20T19:33:09.236Z,31.40
2018-06-20T19:35:38.247Z,31.98
2018-06-20T19:38:07.239Z,30.77
2018-06-20T19:40:36.239Z,31.66
2018-06-20T19:43:05.195Z,33.08
2018-06-20T19:45:34.203Z,33.96
2018-06-20T19:48:03.235Z,33.93
2018-06-20T19:50:32.237Z,32.06
2018-06-20T19:53:01.195Z,31.37
2018-06-20T19:55:30.192Z,32.46
2018-06-20T19:57:59.140Z,32.90
2018-06-20T20:00:28.124Z,32.54
2018-06-20T20:02:57.082Z,32.05
2018-06-20T20:05:26.123Z,37.95
2018-06-20T20:07:55.329Z,36.16
2018-06-20T20:10:24.351Z,36.19
2018-06-20T20:12:53.617Z,38.97
2018-06-20T20:15:22.617Z,39.74
2018-06-20T20:17:51.586Z,39.97
2018-06-20T20:20:20.692Z,40.37
2018-06-20T20:22:50.159Z,38.53
2018-06-20T20:25:19.107Z,39.53
2018-06-20T20:27:48.105Z,40.32
2018-06-20T20:30:17.042Z,39.20
2018-06-20T20:32:46.010Z,40.10
2018-06-20T20:35:14.968Z,40.47
2018-06-20T20:37:44.007Z,39.54
2018-06-20T20:40:12.965Z,39.47
2018-06-20T20:42:42.662Z,40.23
2018-06-20T20:45:11.646Z,39.11
2018-06-20T20:47:40.645Z,39.61
2018-06-20T20:50:09.634Z,38.36
2018-06-20T20:52:38.692Z,37.60
2018-06-20T20:55:07.660Z,37.35
2018-06-20T20:57:36.674Z,38.89
2018-06-20T21:00:06.062Z,39.90
2018-06-20T21:02:35.139Z,39.64
2018-06-20T21:05:04.255Z,40.55
2018-06-20T21:07:33.314Z,41.74
2018-06-20T21:10:02.301Z,41.19
2018-06-20T21:12:31.330Z,41.66
2018-06-20T21:15:00.297Z,42.84
2018-06-20T21:17:29.373Z,42.60
2018-06-20T21:19:58.378Z,42.82
2018-06-20T21:22:27.378Z,43.04
2018-06-20T21:24:56.467Z,43.30
2018-06-20T21:27:25.493Z,42.39
2018-06-20T21:29:54.474Z,43.25
2018-06-20T21:32:23.490Z,42.76
2018-06-20T21:34:52.491Z,42.26
2018-06-20T21:37:21.518Z,42.28
2018-06-20T21:39:50.476Z,42.79
2018-06-20T21:42:19.491Z,43.96
2018-06-20T21:44:48.465Z,44.55
2018-06-20T21:47:17.464Z,44.67
2018-06-20T21:49:46.438Z,44.80
2018-06-20T21:52:15.446Z,45.11
2018-06-20T21:54:44.399Z,44.89
2018-06-20T21:57:13.434Z,44.77
2018-06-20T21:59:42.450Z,45.17
2018-06-20T22:02:11.470Z,44.90
2018-06-20T22:04:40.484Z,45.28
2018-06-20T22:07:09.444Z,45.59
2018-06-20T22:09:38.454Z,45.18
2018-06-20T22:12:07.443Z,44.84
2018-06-20T22:14:36.936Z,44.65
2018-06-20T22:17:06.442Z,44.78
2018-06-20T22:19:35.490Z,44.33
2018-06-20T22:22:04.494Z,44.40
2018-06-20T22:24:33.503Z,44.79
2018-06-20T22:27:02.486Z,44.89
2018-06-20T22:29:31.484Z,45.48
2018-06-20T22:32:00.470Z,45.37
2018-06-20T22:34:29.479Z,46.52
2018-06-20T22:36:58.445Z,47.08
2018-06-20T22:39:27.484Z,46.56
2018-06-20T22:41:56.443Z,46.17
2018-06-20T22:44:25.425Z,46.23
2018-06-20T22:46:54.379Z,46.33
2018-06-20T22:49:23.443Z,46.59
2018-06-20T22:51:52.403Z,46.15
2018-06-20T22:54:21.394Z,45.82
2018-06-20T22:56:50.365Z,46.07
2018-06-20T22:59:19.396Z,45.63
2018-06-20T23:01:48.356Z,45.82
2018-06-20T23:04:17.383Z,45.49
2018-06-20T23:06:46.318Z,45.26
2018-06-20T23:09:15.297Z,45.64
2018-06-20T23:11:47.763Z,46.70
2018-06-20T23:14:16.730Z,46.88
2018-06-20T23:16:45.737Z,48.42
2018-06-20T23:19:14.675Z,48.75
2018-06-20T23:21:43.931Z,48.59
2018-06-20T23:24:12.881Z,48.13
2018-06-20T23:26:41.879Z,47.77
2018-06-20T23:29:10.825Z,48.06
2018-06-20T23:31:39.820Z,47.18
2018-06-20T23:34:08.749Z,47.65
2018-06-20T23:36:37.773Z,47.22
2018-06-20T23:39:09.193Z,47.12
2018-06-20T23:41:38.645Z,47.06
2018-06-20T23:44:07.611Z,47.34
2018-06-20T23:46:36.666Z,47.39
2018-06-20T23:49:05.702Z,47.07
2018-06-20T23:51:34.715Z,47.32
2018-06-20T23:54:03.699Z,47.95
2018-06-20T23:56:32.719Z,48.30
2018-06-20T23:59:01.721Z,48.08
